sensor_id;sensor_type;location;lat;lon;timestamp;temperature;humidity
1704;DHT22;849;48.780;9.216;2023-04-01T00:00:46;11.80;99.90
1704;DHT22;849;48.780;9.216;2023-04-01T00:03:15;11.80;99.90
1704;DHT22;849;48.780;9.216;2023-04-01T00:05:41;11.90;99.90
1704;DHT22;849;48.780;9.216;2023-04-01T00:08:07;12.00;99.90
1704;DHT22;849;48.780;9.216;2023-04-01T00:10:32;11.90;99.90
1704;DHT22;849;48.780;9.216;2023-04-01T00:12:58;12.00;99.90
1704;DHT22;849;48.780;9.216;2023-04-01T00:15:24;12.10;99.90
1704;DHT22;849;48.780;9.216;2023-04-01T00:17:49;12.10;99.90
1704;DHT22;849;48.780;9.216;2023-04-01T00:20:15;12.00;99.90
1704;DHT22;849;48.780;9.216;2023-04-01T00:22:41;12.10;99.90
1704;DHT22;849;48.780;9.216;2023-04-01T00:25:07;12.00;99.90
1704;DHT22;849;48.780;9.216;2023-04-01T00:27:33;11.90;99.90
1704;DHT22;849;48.780;9.216;2023-04-01T00:29:58;11.80;99.90
1704;DHT22;849;48.780;9.216;2023-04-01T00:32:24;11.90;99.90
1704;DHT22;849;48.780;9.216;2023-04-01T00:34:51;11.70;99.90
1704;DHT22;849;48.780;9.216;2023-04-01T00:37:18;11.70;99.90
1704;DHT22;849;48.780;9.216;2023-04-01T00:39:47;11.80;99.90
1704;DHT22;849;48.780;9.216;2023-04-01T00:42:13;11.80;99.90
1704;DHT22;849;48.780;9.216;2023-04-01T00:44:39;11.80;99.90
1704;DHT22;849;48.780;9.216;2023-04-01T00:47:06;11.70;99.90
1704;DHT22;849;48.780;9.216;2023-04-01T00:49:37;11.50;99.90
1704;DHT22;849;48.780;9.216;2023-04-01T00:52:06;11.50;99.90
1704;DHT22;849;48.780;9.216;2023-04-01T00:54:33;11.50;99.90
1704;DHT22;849;48.780;9.216;2023-04-01T00:57:08;11.60;99.90
1704;DHT22;849;48.780;9.216;2023-04-01T00:59:44;11.70;99.90
1704;DHT22;849;48.780;9.216;2023-04-01T01:02:12;11.70;99.90
1704;DHT22;849;48.780;9.216;2023-04-01T01:04:38;11.70;99.90
1704;DHT22;849;48.780;9.216;2023-04-01T01:07:44;11.60;99.90
1704;DHT22;849;48.780;9.216;2023-04-01T01:10:18;11.70;99.90
1704;DHT22;849;48.780;9.216;2023-04-01T01:15:46;11.90;99.90
1704;DHT22;849;48.780;9.216;2023-04-01T01:26:58;11.70;99.90
1704;DHT22;849;48.780;9.216;2023-04-01T01:32:15;11.70;99.90
1704;DHT22;849;48.780;9.216;2023-04-01T01:37:31;11.70;99.90
1704;DHT22;849;48.780;9.216;2023-04-01T01:40:04;11.80;99.90
1704;DHT22;849;48.780;9.216;2023-04-01T01:42:33;11.70;99.90
1704;DHT22;849;48.780;9.216;2023-04-01T01:45:01;11.80;99.90
1704;DHT22;849;48.780;9.216;2023-04-01T01:47:29;11.70;99.90
1704;DHT22;849;48.780;9.216;2023-04-01T01:49:55;11.80;99.90
1704;DHT22;849;48.780;9.216;2023-04-01T01:52:22;11.80;99.90
1704;DHT22;849;48.780;9.216;2023-04-01T01:54:53;11.80;99.90
1704;DHT22;849;48.780;9.216;2023-04-01T01:57:24;11.80;99.90
1704;DHT22;849;48.780;9.216;2023-04-01T01:59:54;11.80;99.90
1704;DHT22;849;48.780;9.216;2023-04-01T02:02:21;11.90;99.90
1704;DHT22;849;48.780;9.216;2023-04-01T02:04:49;11.90;99.90
1704;DHT22;849;48.780;9.216;2023-04-01T02:07:25;11.70;99.90
1704;DHT22;849;48.780;9.216;2023-04-01T02:09:52;11.60;99.90
1704;DHT22;849;48.780;9.216;2023-04-01T02:12:19;11.70;99.90
1704;DHT22;849;48.780;9.216;2023-04-01T02:14:57;11.80;99.90
1704;DHT22;849;48.780;9.216;2023-04-01T02:17:27;11.90;99.90
1704;DHT22;849;48.780;9.216;2023-04-01T02:19:57;11.90;99.90
1704;DHT22;849;48.780;9.216;2023-04-01T02:22:37;11.90;99.90
1704;DHT22;849;48.780;9.216;2023-04-01T02:25:12;11.80;99.90
1704;DHT22;849;48.780;9.216;2023-04-01T02:27:39;11.70;99.90
1704;DHT22;849;48.780;9.216;2023-04-01T02:30:06;11.50;99.90
1704;DHT22;849;48.780;9.216;2023-04-01T02:32:33;11.60;99.90
1704;DHT22;849;48.780;9.216;2023-04-01T02:34:59;11.70;99.90
1704;DHT22;849;48.780;9.216;2023-04-01T02:37:28;11.70;99.90
1704;DHT22;849;48.780;9.216;2023-04-01T02:39:54;11.70;99.90
1704;DHT22;849;48.780;9.216;2023-04-01T02:42:24;11.60;99.90
1704;DHT22;849;48.780;9.216;2023-04-01T02:44:49;11.50;99.90
1704;DHT22;849;48.780;9.216;2023-04-01T02:47:15;11.60;99.90
1704;DHT22;849;48.780;9.216;2023-04-01T02:49:41;11.40;99.90
1704;DHT22;849;48.780;9.216;2023-04-01T02:52:07;11.40;99.90
1704;DHT22;849;48.780;9.216;2023-04-01T02:54:33;11.40;99.90
1704;DHT22;849;48.780;9.216;2023-04-01T02:56:58;11.30;99.90
1704;DHT22;849;48.780;9.216;2023-04-01T02:59:24;11.40;99.90
1704;DHT22;849;48.780;9.216;2023-04-01T03:01:49;11.50;99.90
1704;DHT22;849;48.780;9.216;2023-04-01T03:04:15;11.50;99.90
1704;DHT22;849;48.780;9.216;2023-04-01T03:06:41;11.40;99.90
1704;DHT22;849;48.780;9.216;2023-04-01T03:09:06;11.40;99.90
1704;DHT22;849;48.780;9.216;2023-04-01T03:11:32;11.30;99.90
1704;DHT22;849;48.780;9.216;2023-04-01T03:13:57;11.20;99.90
1704;DHT22;849;48.780;9.216;2023-04-01T03:16:23;11.30;99.90
1704;DHT22;849;48.780;9.216;2023-04-01T03:18:49;11.30;99.90
1704;DHT22;849;48.780;9.216;2023-04-01T03:21:21;11.40;99.90
1704;DHT22;849;48.780;9.216;2023-04-01T03:23:47;11.30;99.90
1704;DHT22;849;48.780;9.216;2023-04-01T03:26:13;11.30;99.90
1704;DHT22;849;48.780;9.216;2023-04-01T03:28:39;11.20;99.90
1704;DHT22;849;48.780;9.216;2023-04-01T03:31:04;11.20;99.90
1704;DHT22;849;48.780;9.216;2023-04-01T03:33:31;11.20;99.90
1704;DHT22;849;48.780;9.216;2023-04-01T03:35:57;11.20;99.90
1704;DHT22;849;48.780;9.216;2023-04-01T03:38:23;11.20;99.90
1704;DHT22;849;48.780;9.216;2023-04-01T03:40:48;11.10;99.90
1704;DHT22;849;48.780;9.216;2023-04-01T03:43:14;11.10;99.90
1704;DHT22;849;48.780;9.216;2023-04-01T03:45:49;11.30;99.90
1704;DHT22;849;48.780;9.216;2023-04-01T03:48:16;11.20;99.90
1704;DHT22;849;48.780;9.216;2023-04-01T03:50:42;10.80;99.90
1704;DHT22;849;48.780;9.216;2023-04-01T03:53:08;11.00;99.90
1704;DHT22;849;48.780;9.216;2023-04-01T03:55:36;11.20;99.90
1704;DHT22;849;48.780;9.216;2023-04-01T03:58:02;11.20;99.90
1704;DHT22;849;48.780;9.216;2023-04-01T04:00:29;11.10;99.90
1704;DHT22;849;48.780;9.216;2023-04-01T04:02:55;10.80;99.90
1704;DHT22;849;48.780;9.216;2023-04-01T04:05:24;10.90;99.90
1704;DHT22;849;48.780;9.216;2023-04-01T04:07:51;11.00;99.90
1704;DHT22;849;48.780;9.216;2023-04-01T04:10:17;11.10;99.90
1704;DHT22;849;48.780;9.216;2023-04-01T04:12:43;11.10;99.90
1704;DHT22;849;48.780;9.216;2023-04-01T04:15:09;11.10;99.90
1704;DHT22;849;48.780;9.216;2023-04-01T04:17:34;11.10;99.90
1704;DHT22;849;48.780;9.216;2023-04-01T04:20:01;11.00;99.90
1704;DHT22;849;48.780;9.216;2023-04-01T04:22:26;11.00;99.90
1704;DHT22;849;48.780;9.216;2023-04-01T04:24:52;11.00;99.90
1704;DHT22;849;48.780;9.216;2023-04-01T04:27:18;11.00;99.90
1704;DHT22;849;48.780;9.216;2023-04-01T04:29:44;11.10;99.90
1704;DHT22;849;48.780;9.216;2023-04-01T04:32:10;11.10;99.90
1704;DHT22;849;48.780;9.216;2023-04-01T04:34:36;11.00;99.90
1704;DHT22;849;48.780;9.216;2023-04-01T04:37:02;11.10;99.90
1704;DHT22;849;48.780;9.216;2023-04-01T04:39:29;11.10;99.90
1704;DHT22;849;48.780;9.216;2023-04-01T04:41:54;11.00;99.90
1704;DHT22;849;48.780;9.216;2023-04-01T04:44:20;10.90;99.90
1704;DHT22;849;48.780;9.216;2023-04-01T04:46:46;10.80;99.90
1704;DHT22;849;48.780;9.216;2023-04-01T04:49:11;10.80;99.90
1704;DHT22;849;48.780;9.216;2023-04-01T04:51:37;10.70;99.90
1704;DHT22;849;48.780;9.216;2023-04-01T04:54:04;10.60;99.90
1704;DHT22;849;48.780;9.216;2023-04-01T04:56:30;10.60;99.90
1704;DHT22;849;48.780;9.216;2023-04-01T04:58:56;10.60;99.90
1704;DHT22;849;48.780;9.216;2023-04-01T05:01:22;10.50;99.90
1704;DHT22;849;48.780;9.216;2023-04-01T05:03:48;10.60;99.90
1704;DHT22;849;48.780;9.216;2023-04-01T05:06:15;10.50;99.90
1704;DHT22;849;48.780;9.216;2023-04-01T05:08:41;10.60;99.90
1704;DHT22;849;48.780;9.216;2023-04-01T05:11:14;10.60;99.90
1704;DHT22;849;48.780;9.216;2023-04-01T05:13:41;10.70;99.90
1704;DHT22;849;48.780;9.216;2023-04-01T05:16:11;10.70;99.90
1704;DHT22;849;48.780;9.216;2023-04-01T05:18:37;10.70;99.90
1704;DHT22;849;48.780;9.216;2023-04-01T05:21:03;10.70;99.90
1704;DHT22;849;48.780;9.216;2023-04-01T05:23:31;10.60;99.90
1704;DHT22;849;48.780;9.216;2023-04-01T05:25:57;10.80;99.90
1704;DHT22;849;48.780;9.216;2023-04-01T05:28:22;10.80;99.90
1704;DHT22;849;48.780;9.216;2023-04-01T05:30:48;10.70;99.90
1704;DHT22;849;48.780;9.216;2023-04-01T05:33:14;10.80;99.90
1704;DHT22;849;48.780;9.216;2023-04-01T05:35:40;10.60;99.90
1704;DHT22;849;48.780;9.216;2023-04-01T05:38:06;10.60;99.90
1704;DHT22;849;48.780;9.216;2023-04-01T05:40:32;10.70;99.90
1704;DHT22;849;48.780;9.216;2023-04-01T05:42:58;10.80;99.90
1704;DHT22;849;48.780;9.216;2023-04-01T05:45:24;10.70;99.90
1704;DHT22;849;48.780;9.216;2023-04-01T05:47:50;10.60;99.90
1704;DHT22;849;48.780;9.216;2023-04-01T05:50:17;10.60;99.90
1704;DHT22;849;48.780;9.216;2023-04-01T05:52:42;10.70;99.90
1704;DHT22;849;48.780;9.216;2023-04-01T05:55:08;10.80;99.90
1704;DHT22;849;48.780;9.216;2023-04-01T05:57:34;10.90;99.90
1704;DHT22;849;48.780;9.216;2023-04-01T06:00:00;11.00;99.90
1704;DHT22;849;48.780;9.216;2023-04-01T06:02:26;11.00;99.90
1704;DHT22;849;48.780;9.216;2023-04-01T06:05:10;10.90;99.90
1704;DHT22;849;48.780;9.216;2023-04-01T06:07:36;10.80;99.90
1704;DHT22;849;48.780;9.216;2023-04-01T06:10:19;11.00;99.90
1704;DHT22;849;48.780;9.216;2023-04-01T06:18:08;11.10;99.90
1704;DHT22;849;48.780;9.216;2023-04-01T06:21:07;11.00;99.90
1704;DHT22;849;48.780;9.216;2023-04-01T06:29:05;11.20;99.90
1704;DHT22;849;48.780;9.216;2023-04-01T06:43:50;11.20;99.90
1704;DHT22;849;48.780;9.216;2023-04-01T06:46:47;11.40;99.90
1704;DHT22;849;48.780;9.216;2023-04-01T06:54:46;11.30;99.90
1704;DHT22;849;48.780;9.216;2023-04-01T06:59:51;11.30;99.90
1704;DHT22;849;48.780;9.216;2023-04-01T07:02:28;11.50;99.90
1704;DHT22;849;48.780;9.216;2023-04-01T07:04:58;11.60;99.90
1704;DHT22;849;48.780;9.216;2023-04-01T07:07:41;11.40;99.90
1704;DHT22;849;48.780;9.216;2023-04-01T07:10:17;11.30;99.90
1704;DHT22;849;48.780;9.216;2023-04-01T07:12:49;11.40;99.90
1704;DHT22;849;48.780;9.216;2023-04-01T07:15:44;11.40;99.90
1704;DHT22;849;48.780;9.216;2023-04-01T07:18:25;11.40;99.90
1704;DHT22;849;48.780;9.216;2023-04-01T07:20:54;11.60;99.90
1704;DHT22;849;48.780;9.216;2023-04-01T07:23:28;11.60;99.90
1704;DHT22;849;48.780;9.216;2023-04-01T07:26:22;11.70;99.90
1704;DHT22;849;48.780;9.216;2023-04-01T07:28:48;11.80;99.90
1704;DHT22;849;48.780;9.216;2023-04-01T07:33:59;11.90;99.90
1704;DHT22;849;48.780;9.216;2023-04-01T07:36:37;11.80;99.90
1704;DHT22;849;48.780;9.216;2023-04-01T07:39:15;11.70;99.90
1704;DHT22;849;48.780;9.216;2023-04-01T07:41:51;11.80;99.90
1704;DHT22;849;48.780;9.216;2023-04-01T07:47:58;11.60;99.90
1704;DHT22;849;48.780;9.216;2023-04-01T07:50:28;11.90;99.90
1704;DHT22;849;48.780;9.216;2023-04-01T07:53:15;11.90;99.90
1704;DHT22;849;48.780;9.216;2023-04-01T07:59:08;11.70;99.90
1704;DHT22;849;48.780;9.216;2023-04-01T08:01:50;11.50;99.90
1704;DHT22;849;48.780;9.216;2023-04-01T08:04:33;11.60;99.90
1704;DHT22;849;48.780;9.216;2023-04-01T08:07:12;11.70;99.90
1704;DHT22;849;48.780;9.216;2023-04-01T08:09:48;11.60;99.90
1704;DHT22;849;48.780;9.216;2023-04-01T08:21:28;12.00;99.90
1704;DHT22;849;48.780;9.216;2023-04-01T08:23:58;12.10;99.90
1704;DHT22;849;48.780;9.216;2023-04-01T08:26:37;12.00;99.90
1704;DHT22;849;48.780;9.216;2023-04-01T08:29:15;12.10;99.90
1704;DHT22;849;48.780;9.216;2023-04-01T08:31:58;12.20;99.90
1704;DHT22;849;48.780;9.216;2023-04-01T08:34:30;12.20;99.90
1704;DHT22;849;48.780;9.216;2023-04-01T08:37:11;12.30;99.90
1704;DHT22;849;48.780;9.216;2023-04-01T08:39:48;12.40;99.90
1704;DHT22;849;48.780;9.216;2023-04-01T08:45:28;12.00;99.90
1704;DHT22;849;48.780;9.216;2023-04-01T08:51:20;12.00;99.90
1704;DHT22;849;48.780;9.216;2023-04-01T08:59:41;11.80;99.90
1704;DHT22;849;48.780;9.216;2023-04-01T09:11:03;11.70;99.90
1704;DHT22;849;48.780;9.216;2023-04-01T09:13:59;11.50;99.90
1704;DHT22;849;48.780;9.216;2023-04-01T09:16:57;11.60;99.90
1704;DHT22;849;48.780;9.216;2023-04-01T09:19:50;11.50;99.90
1704;DHT22;849;48.780;9.216;2023-04-01T09:22:35;11.60;99.90
1704;DHT22;849;48.780;9.216;2023-04-01T09:25:32;11.60;99.90
1704;DHT22;849;48.780;9.216;2023-04-01T09:27:57;11.60;99.90
1704;DHT22;849;48.780;9.216;2023-04-01T09:30:31;11.60;99.90
1704;DHT22;849;48.780;9.216;2023-04-01T09:41:30;11.30;99.90
1704;DHT22;849;48.780;9.216;2023-04-01T09:44:13;11.40;99.90
1704;DHT22;849;48.780;9.216;2023-04-01T09:49:16;11.60;99.90
1704;DHT22;849;48.780;9.216;2023-04-01T10:18:20;11.60;99.90
1704;DHT22;849;48.780;9.216;2023-04-01T10:26:47;11.70;99.90
1704;DHT22;849;48.780;9.216;2023-04-01T10:29:42;11.90;99.90
1704;DHT22;849;48.780;9.216;2023-04-01T10:35:18;12.20;99.90
1704;DHT22;849;48.780;9.216;2023-04-01T10:40:35;12.40;99.90
1704;DHT22;849;48.780;9.216;2023-04-01T10:43:23;12.20;99.90
1704;DHT22;849;48.780;9.216;2023-04-01T10:52:07;12.30;99.90
1704;DHT22;849;48.780;9.216;2023-04-01T10:54:51;12.20;99.90
1704;DHT22;849;48.780;9.216;2023-04-01T11:00:32;12.10;99.90
1704;DHT22;849;48.780;9.216;2023-04-01T11:09:19;12.10;99.90
1704;DHT22;849;48.780;9.216;2023-04-01T11:35:51;12.90;99.90
1704;DHT22;849;48.780;9.216;2023-04-01T11:38:26;12.90;99.90
1704;DHT22;849;48.780;9.216;2023-04-01T11:41:25;13.00;99.90
1704;DHT22;849;48.780;9.216;2023-04-01T11:57:51;13.30;99.90
1704;DHT22;849;48.780;9.216;2023-04-01T12:00:40;12.90;99.90
1704;DHT22;849;48.780;9.216;2023-04-01T12:08:49;13.10;99.90
1704;DHT22;849;48.780;9.216;2023-04-01T12:14:13;12.80;99.90
1704;DHT22;849;48.780;9.216;2023-04-01T12:19:19;12.70;99.90
1704;DHT22;849;48.780;9.216;2023-04-01T12:24:56;12.90;99.90
1704;DHT22;849;48.780;9.216;2023-04-01T12:30:55;13.40;99.90
1704;DHT22;849;48.780;9.216;2023-04-01T12:34:17;13.20;99.90
1704;DHT22;849;48.780;9.216;2023-04-01T12:39:51;12.70;99.90
1704;DHT22;849;48.780;9.216;2023-04-01T12:45:38;12.90;99.90
1704;DHT22;849;48.780;9.216;2023-04-01T12:48:27;13.00;99.90
1704;DHT22;849;48.780;9.216;2023-04-01T12:51:19;12.90;99.90
1704;DHT22;849;48.780;9.216;2023-04-01T13:01:59;13.20;99.90
1704;DHT22;849;48.780;9.216;2023-04-01T13:05:09;13.50;99.90
1704;DHT22;849;48.780;9.216;2023-04-01T13:16:37;13.10;99.90
1704;DHT22;849;48.780;9.216;2023-04-01T13:19:25;12.80;99.90
1704;DHT22;849;48.780;9.216;2023-04-01T13:22:15;12.90;99.90
1704;DHT22;849;48.780;9.216;2023-04-01T13:24:51;12.80;99.90
1704;DHT22;849;48.780;9.216;2023-04-01T13:33:24;12.90;99.90
1704;DHT22;849;48.780;9.216;2023-04-01T13:39:13;13.10;99.90
1704;DHT22;849;48.780;9.216;2023-04-01T13:41:59;13.00;99.90
1704;DHT22;849;48.780;9.216;2023-04-01T13:44:45;13.20;99.90
1704;DHT22;849;48.780;9.216;2023-04-01T14:01:35;13.00;99.90
1704;DHT22;849;48.780;9.216;2023-04-01T14:07:38;12.80;99.90
1704;DHT22;849;48.780;9.216;2023-04-01T14:18:39;12.90;99.90
1704;DHT22;849;48.780;9.216;2023-04-01T14:29:18;12.90;99.90
1704;DHT22;849;48.780;9.216;2023-04-01T14:34:39;12.90;99.90
1704;DHT22;849;48.780;9.216;2023-04-01T14:40:20;12.90;99.90
1704;DHT22;849;48.780;9.216;2023-04-01T14:48:38;12.40;99.90
1704;DHT22;849;48.780;9.216;2023-04-01T14:51:30;12.40;99.90
1704;DHT22;849;48.780;9.216;2023-04-01T14:57:01;12.50;99.90
1704;DHT22;849;48.780;9.216;2023-04-01T14:59:29;12.80;99.90
1704;DHT22;849;48.780;9.216;2023-04-01T15:05:49;13.30;99.90
1704;DHT22;849;48.780;9.216;2023-04-01T15:08:05;13.30;99.90
1704;DHT22;849;48.780;9.216;2023-04-01T15:18:41;13.70;99.90
1704;DHT22;849;48.780;9.216;2023-04-01T15:23:56;13.70;99.90
1704;DHT22;849;48.780;9.216;2023-04-01T15:32:02;13.50;99.90
1704;DHT22;849;48.780;9.216;2023-04-01T15:34:59;13.40;99.90
1704;DHT22;849;48.780;9.216;2023-04-01T15:37:46;13.20;99.90
1704;DHT22;849;48.780;9.216;2023-04-01T15:40:37;13.10;99.90
1704;DHT22;849;48.780;9.216;2023-04-01T15:46:48;13.10;99.90
1704;DHT22;849;48.780;9.216;2023-04-01T15:49:34;13.10;99.90
1704;DHT22;849;48.780;9.216;2023-04-01T15:55:01;13.30;99.90
1704;DHT22;849;48.780;9.216;2023-04-01T16:00:19;13.30;99.90
1704;DHT22;849;48.780;9.216;2023-04-01T16:05:55;13.40;99.90
1704;DHT22;849;48.780;9.216;2023-04-01T16:14:28;12.60;99.90
1704;DHT22;849;48.780;9.216;2023-04-01T16:17:17;12.60;99.90
1704;DHT22;849;48.780;9.216;2023-04-01T16:22:58;12.50;99.90
1704;DHT22;849;48.780;9.216;2023-04-01T16:28:28;13.00;99.90
1704;DHT22;849;48.780;9.216;2023-04-01T16:33:57;12.90;99.90
1704;DHT22;849;48.780;9.216;2023-04-01T16:36:34;13.10;99.90
1704;DHT22;849;48.780;9.216;2023-04-01T16:39:43;12.60;99.90
1704;DHT22;849;48.780;9.216;2023-04-01T16:42:14;12.80;99.90
1704;DHT22;849;48.780;9.216;2023-04-01T16:44:59;13.00;99.90
1704;DHT22;849;48.780;9.216;2023-04-01T16:47:53;13.10;99.90
1704;DHT22;849;48.780;9.216;2023-04-01T16:53:17;13.20;99.90
1704;DHT22;849;48.780;9.216;2023-04-01T16:56:07;13.10;99.90
1704;DHT22;849;48.780;9.216;2023-04-01T17:07:23;13.20;99.90
1704;DHT22;849;48.780;9.216;2023-04-01T17:21:10;13.30;99.90
1704;DHT22;849;48.780;9.216;2023-04-01T17:23:53;13.00;99.90
1704;DHT22;849;48.780;9.216;2023-04-01T17:26:33;13.00;99.90
1704;DHT22;849;48.780;9.216;2023-04-01T17:29:10;13.00;99.90
1704;DHT22;849;48.780;9.216;2023-04-01T17:31:50;12.70;99.90
1704;DHT22;849;48.780;9.216;2023-04-01T17:34:26;12.80;99.90
1704;DHT22;849;48.780;9.216;2023-04-01T17:37:06;12.70;99.90
1704;DHT22;849;48.780;9.216;2023-04-01T17:39:55;12.80;99.90
1704;DHT22;849;48.780;9.216;2023-04-01T17:42:53;12.80;99.90
1704;DHT22;849;48.780;9.216;2023-04-01T17:45:30;13.00;99.90
1704;DHT22;849;48.780;9.216;2023-04-01T17:48:21;13.20;99.90
1704;DHT22;849;48.780;9.216;2023-04-01T17:51:21;13.50;99.90
1704;DHT22;849;48.780;9.216;2023-04-01T17:56:41;13.30;99.90
1704;DHT22;849;48.780;9.216;2023-04-01T17:59:38;13.00;99.90
1704;DHT22;849;48.780;9.216;2023-04-01T18:10:35;13.40;99.90
1704;DHT22;849;48.780;9.216;2023-04-01T18:21:47;13.40;99.90
1704;DHT22;849;48.780;9.216;2023-04-01T18:27:04;12.90;99.90
1704;DHT22;849;48.780;9.216;2023-04-01T18:32:28;13.30;99.90
1704;DHT22;849;48.780;9.216;2023-04-01T18:38:00;13.40;99.90
1704;DHT22;849;48.780;9.216;2023-04-01T18:40:43;13.30;99.90
1704;DHT22;849;48.780;9.216;2023-04-01T18:49:20;12.90;99.90
1704;DHT22;849;48.780;9.216;2023-04-01T18:51:54;12.70;99.90
1704;DHT22;849;48.780;9.216;2023-04-01T18:57:52;12.10;99.90
1704;DHT22;849;48.780;9.216;2023-04-01T19:00:35;12.10;99.90
1704;DHT22;849;48.780;9.216;2023-04-01T19:05:41;11.90;99.90
1704;DHT22;849;48.780;9.216;2023-04-01T19:08:19;12.00;99.90
1704;DHT22;849;48.780;9.216;2023-04-01T19:18:58;11.80;99.90
1704;DHT22;849;48.780;9.216;2023-04-01T19:21:28;11.70;99.90
1704;DHT22;849;48.780;9.216;2023-04-01T19:24:46;11.80;99.90
1704;DHT22;849;48.780;9.216;2023-04-01T19:27:37;11.80;99.90
1704;DHT22;849;48.780;9.216;2023-04-01T19:38:04;12.30;99.90
1704;DHT22;849;48.780;9.216;2023-04-01T19:40:53;12.40;99.90
1704;DHT22;849;48.780;9.216;2023-04-01T19:54:30;12.10;99.90
1704;DHT22;849;48.780;9.216;2023-04-01T20:10:53;12.00;99.90
1704;DHT22;849;48.780;9.216;2023-04-01T20:16:15;12.30;99.90
1704;DHT22;849;48.780;9.216;2023-04-01T20:18:54;12.30;99.90
1704;DHT22;849;48.780;9.216;2023-04-01T20:21:37;12.40;99.90
1704;DHT22;849;48.780;9.216;2023-04-01T20:24:24;12.50;99.90
1704;DHT22;849;48.780;9.216;2023-04-01T20:27:26;12.40;99.90
1704;DHT22;849;48.780;9.216;2023-04-01T20:30:38;12.50;99.90
1704;DHT22;849;48.780;9.216;2023-04-01T20:44:04;12.20;99.90
1704;DHT22;849;48.780;9.216;2023-04-01T20:46:53;12.20;99.90
1704;DHT22;849;48.780;9.216;2023-04-01T20:49:33;12.20;99.90
1704;DHT22;849;48.780;9.216;2023-04-01T20:52:17;12.10;99.90
1704;DHT22;849;48.780;9.216;2023-04-01T20:57:42;11.90;99.90
1704;DHT22;849;48.780;9.216;2023-04-01T21:00:36;11.70;99.90
1704;DHT22;849;48.780;9.216;2023-04-01T21:12:24;12.10;99.90
1704;DHT22;849;48.780;9.216;2023-04-01T21:15:16;12.00;99.90
1704;DHT22;849;48.780;9.216;2023-04-01T21:18:21;11.70;99.90
1704;DHT22;849;48.780;9.216;2023-04-01T21:26:35;12.00;99.90
1704;DHT22;849;48.780;9.216;2023-04-01T21:32:10;12.10;99.90
1704;DHT22;849;48.780;9.216;2023-04-01T21:35:18;12.10;99.90
1704;DHT22;849;48.780;9.216;2023-04-01T21:38:06;12.30;99.90
1704;DHT22;849;48.780;9.216;2023-04-01T22:00:23;12.40;99.90
1704;DHT22;849;48.780;9.216;2023-04-01T22:11:10;12.00;99.90
1704;DHT22;849;48.780;9.216;2023-04-01T22:13:54;12.10;99.90
1704;DHT22;849;48.780;9.216;2023-04-01T22:16:54;11.80;99.90
1704;DHT22;849;48.780;9.216;2023-04-01T22:22:26;11.90;99.90
1704;DHT22;849;48.780;9.216;2023-04-01T22:25:11;12.00;99.90
1704;DHT22;849;48.780;9.216;2023-04-01T22:27:58;12.10;99.90
1704;DHT22;849;48.780;9.216;2023-04-01T22:30:46;12.10;99.90
1704;DHT22;849;48.780;9.216;2023-04-01T22:33:20;12.00;99.90
1704;DHT22;849;48.780;9.216;2023-04-01T22:36:46;11.60;99.90
1704;DHT22;849;48.780;9.216;2023-04-01T22:41:58;11.80;99.90
1704;DHT22;849;48.780;9.216;2023-04-01T22:44:55;12.00;99.90
1704;DHT22;849;48.780;9.216;2023-04-01T22:48:05;12.10;99.90
1704;DHT22;849;48.780;9.216;2023-04-01T22:50:28;12.20;99.90
1704;DHT22;849;48.780;9.216;2023-04-01T22:55:49;11.90;99.90
1704;DHT22;849;48.780;9.216;2023-04-01T22:58:21;12.00;99.90
1704;DHT22;849;48.780;9.216;2023-04-01T23:00:52;12.10;99.90
1704;DHT22;849;48.780;9.216;2023-04-01T23:03:31;12.20;99.90
1704;DHT22;849;48.780;9.216;2023-04-01T23:05:59;12.10;99.90
1704;DHT22;849;48.780;9.216;2023-04-01T23:10:59;12.00;99.90
1704;DHT22;849;48.780;9.216;2023-04-01T23:13:45;12.00;99.90
1704;DHT22;849;48.780;9.216;2023-04-01T23:16:14;12.10;99.90
1704;DHT22;849;48.780;9.216;2023-04-01T23:18:55;12.10;99.90
1704;DHT22;849;48.780;9.216;2023-04-01T23:21:41;12.10;99.90
1704;DHT22;849;48.780;9.216;2023-04-01T23:24:12;11.90;99.90
1704;DHT22;849;48.780;9.216;2023-04-01T23:26:58;11.70;99.90
1704;DHT22;849;48.780;9.216;2023-04-01T23:29:25;11.70;99.90
1704;DHT22;849;48.780;9.216;2023-04-01T23:31:59;11.90;99.90
1704;DHT22;849;48.780;9.216;2023-04-01T23:34:35;12.00;99.90
1704;DHT22;849;48.780;9.216;2023-04-01T23:37:11;12.00;99.90
1704;DHT22;849;48.780;9.216;2023-04-01T23:39:42;12.00;99.90
1704;DHT22;849;48.780;9.216;2023-04-01T23:42:15;12.00;99.90
1704;DHT22;849;48.780;9.216;2023-04-01T23:44:45;12.00;99.90
1704;DHT22;849;48.780;9.216;2023-04-01T23:47:23;12.10;99.90
1704;DHT22;849;48.780;9.216;2023-04-01T23:49:56;12.10;99.90
1704;DHT22;849;48.780;9.216;2023-04-01T23:53:23;12.20;99.90
1704;DHT22;849;48.780;9.216;2023-04-01T23:55:27;12.10;99.90
